createdAt,value
2022-10-18T00:00:59.072Z,17.90
2022-10-18T00:03:29.024Z,17.90
2022-10-18T00:05:59.686Z,17.90
2022-10-18T00:08:27.546Z,17.90
2022-10-18T00:10:57.700Z,17.80
2022-10-18T00:13:26.980Z,17.90
2022-10-18T00:16:00.459Z,17.90
2022-10-18T00:18:28.481Z,17.80
2022-10-18T00:21:08.981Z,17.80
2022-10-18T00:23:36.845Z,17.90
2022-10-18T00:26:08.271Z,17.80
2022-10-18T00:28:36.365Z,17.80
2022-10-18T00:31:38.574Z,17.80
2022-10-18T00:34:09.681Z,17.80
2022-10-18T00:36:36.992Z,17.80
2022-10-18T00:39:06.171Z,17.80
2022-10-18T00:41:36.927Z,17.80
2022-10-18T00:44:11.266Z,17.70
2022-10-18T00:46:44.824Z,17.80
2022-10-18T00:49:22.573Z,17.70
2022-10-18T00:52:00.306Z,17.70
2022-10-18T00:54:32.029Z,17.60
2022-10-18T00:57:00.446Z,17.60
2022-10-18T00:59:28.025Z,17.60
2022-10-18T01:01:55.190Z,17.60
2022-10-18T01:04:22.999Z,17.60
2022-10-18T01:07:01.567Z,17.60
2022-10-18T01:09:41.640Z,17.70
2022-10-18T01:12:30.521Z,17.70
2022-10-18T01:15:11.796Z,17.70
2022-10-18T01:17:49.194Z,17.70
2022-10-18T01:20:49.716Z,17.70
2022-10-18T01:23:26.429Z,17.70
2022-10-18T01:26:11.075Z,17.90
2022-10-18T01:28:59.183Z,17.70
2022-10-18T01:31:45.448Z,17.70
2022-10-18T01:34:17.205Z,17.70
2022-10-18T01:36:56.635Z,17.70
2022-10-18T01:39:33.890Z,17.70
2022-10-18T01:42:05.976Z,17.70
2022-10-18T01:44:37.916Z,17.60
2022-10-18T01:47:12.416Z,17.60
2022-10-18T01:49:39.318Z,17.60
2022-10-18T01:52:21.576Z,17.70
2022-10-18T01:54:49.446Z,17.70
2022-10-18T01:57:37.448Z,17.70
2022-10-18T02:00:45.141Z,17.70
2022-10-18T02:03:22.533Z,17.70
2022-10-18T02:06:00.375Z,17.70
2022-10-18T02:08:35.616Z,17.70
2022-10-18T02:11:12.443Z,17.70
2022-10-18T02:14:02.687Z,17.60
2022-10-18T02:16:37.825Z,17.60
2022-10-18T02:19:16.442Z,17.70
2022-10-18T02:21:45.637Z,17.70
2022-10-18T02:24:15.306Z,17.70
2022-10-18T02:26:42.646Z,17.70
2022-10-18T02:29:10.111Z,17.70
2022-10-18T02:31:44.049Z,17.70
2022-10-18T02:34:31.958Z,17.70
2022-10-18T02:37:01.440Z,17.70
2022-10-18T02:39:48.609Z,17.70
2022-10-18T02:42:18.042Z,17.70
2022-10-18T02:44:48.019Z,17.70
2022-10-18T02:47:21.244Z,17.70
2022-10-18T02:49:48.621Z,17.70
2022-10-18T02:52:15.641Z,17.80
2022-10-18T02:54:42.470Z,17.70
2022-10-18T02:57:09.676Z,17.70
2022-10-18T02:59:36.834Z,17.70
2022-10-18T03:02:04.119Z,17.70
2022-10-18T03:04:31.502Z,17.70
2022-10-18T03:06:58.530Z,17.70
2022-10-18T03:09:25.706Z,17.70
2022-10-18T03:11:54.904Z,17.70
2022-10-18T03:14:22.206Z,17.60
2022-10-18T03:16:52.143Z,17.60
2022-10-18T03:19:19.201Z,17.60
2022-10-18T03:21:46.553Z,17.60
2022-10-18T03:24:13.874Z,17.60
2022-10-18T03:26:41.293Z,17.60
2022-10-18T03:29:10.321Z,17.60
2022-10-18T03:31:37.716Z,17.70
2022-10-18T03:34:07.495Z,17.70
2022-10-18T03:36:34.649Z,17.60
2022-10-18T03:39:01.745Z,17.60
2022-10-18T03:41:29.171Z,17.60
2022-10-18T03:43:58.553Z,17.70
2022-10-18T03:46:28.611Z,17.60
2022-10-18T03:48:55.547Z,17.60
2022-10-18T03:51:28.569Z,17.60
2022-10-18T03:53:55.560Z,17.70
2022-10-18T03:56:22.545Z,17.60
2022-10-18T03:58:49.599Z,17.70
2022-10-18T04:01:19.621Z,17.70
2022-10-18T04:03:46.632Z,17.70
2022-10-18T04:06:14.722Z,17.70
2022-10-18T04:08:44.708Z,17.70
2022-10-18T04:11:14.727Z,17.80
2022-10-18T04:13:41.747Z,17.80
2022-10-18T04:16:08.750Z,17.80
2022-10-18T04:18:35.717Z,17.80
2022-10-18T04:21:02.894Z,17.80
2022-10-18T04:23:31.811Z,17.80
2022-10-18T04:26:04.782Z,17.80
2022-10-18T04:28:31.864Z,17.90
2022-10-18T04:31:01.951Z,17.80
2022-10-18T04:33:28.945Z,17.70
2022-10-18T04:35:55.883Z,17.70
2022-10-18T04:38:26.648Z,17.70
2022-10-18T04:40:53.744Z,17.60
2022-10-18T04:43:24.459Z,17.60
2022-10-18T04:45:51.491Z,17.60
2022-10-18T04:48:19.006Z,17.70
2022-10-18T04:50:49.974Z,17.70
2022-10-18T04:53:21.102Z,17.70
2022-10-18T04:55:49.494Z,17.60
2022-10-18T04:58:18.171Z,17.60
2022-10-18T05:00:47.943Z,17.70
2022-10-18T05:03:18.176Z,17.60
2022-10-18T05:06:03.952Z,17.60
2022-10-18T05:08:33.209Z,17.60
2022-10-18T05:11:00.713Z,17.60
2022-10-18T05:13:31.041Z,17.70
2022-10-18T05:16:00.184Z,17.70
2022-10-18T05:18:27.564Z,17.70
2022-10-18T05:20:54.660Z,17.70
2022-10-18T05:23:21.879Z,17.70
2022-10-18T05:25:49.176Z,17.70
2022-10-18T05:28:41.093Z,17.70
2022-10-18T05:31:12.281Z,17.70
2022-10-18T05:33:39.537Z,17.70
2022-10-18T05:36:10.299Z,17.70
2022-10-18T05:38:45.559Z,17.60
2022-10-18T05:41:13.146Z,17.60
2022-10-18T05:43:41.177Z,17.60
2022-10-18T05:46:13.467Z,17.60
2022-10-18T05:48:45.029Z,17.70
2022-10-18T05:51:14.605Z,17.60
2022-10-18T05:53:44.154Z,17.60
2022-10-18T05:56:14.521Z,17.60
2022-10-18T05:58:42.871Z,17.70
2022-10-18T06:01:10.922Z,17.70
2022-10-18T06:03:38.102Z,17.60
2022-10-18T06:06:08.189Z,17.70
2022-10-18T06:08:39.361Z,17.70
2022-10-18T06:11:11.524Z,17.70
2022-10-18T06:13:48.205Z,17.60
2022-10-18T06:16:19.979Z,17.60
2022-10-18T06:19:00.786Z,17.50
2022-10-18T06:21:29.481Z,17.50
2022-10-18T06:24:00.912Z,17.50
2022-10-18T06:26:28.741Z,17.50
2022-10-18T06:29:01.425Z,17.50
2022-10-18T06:31:28.582Z,17.50
2022-10-18T06:33:58.299Z,17.50
2022-10-18T06:36:25.308Z,17.50
2022-10-18T06:38:52.807Z,17.40
2022-10-18T06:41:20.606Z,17.50
2022-10-18T06:43:51.750Z,17.50
2022-10-18T06:46:19.942Z,17.50
2022-10-18T06:48:47.377Z,17.50
2022-10-18T06:51:15.422Z,17.50
2022-10-18T06:53:53.460Z,17.60
2022-10-18T06:56:30.774Z,17.60
2022-10-18T06:59:00.055Z,17.60
2022-10-18T07:01:28.633Z,17.60
2022-10-18T07:03:58.908Z,17.60
2022-10-18T07:06:26.261Z,17.60
2022-10-18T07:08:54.290Z,17.50
2022-10-18T07:11:25.186Z,17.50
2022-10-18T07:13:55.672Z,17.50
2022-10-18T07:16:25.886Z,17.60
2022-10-18T07:18:52.871Z,17.60
2022-10-18T07:21:24.569Z,17.60
2022-10-18T07:23:52.728Z,17.70
2022-10-18T07:26:22.664Z,17.70
2022-10-18T07:28:54.785Z,17.70
2022-10-18T07:31:24.241Z,17.80
2022-10-18T07:33:52.479Z,17.80
2022-10-18T07:36:21.415Z,17.80
2022-10-18T07:38:49.264Z,17.80
2022-10-18T07:41:16.290Z,17.90
2022-10-18T07:43:49.979Z,17.90
2022-10-18T07:46:18.662Z,18.00
2022-10-18T07:48:45.961Z,18.00
2022-10-18T07:51:16.056Z,17.90
2022-10-18T07:53:43.043Z,17.90
2022-10-18T07:56:21.041Z,17.90
2022-10-18T07:58:53.866Z,17.90
2022-10-18T08:01:22.798Z,17.90
2022-10-18T08:03:54.024Z,18.00
2022-10-18T08:06:22.896Z,18.00
2022-10-18T08:08:50.023Z,18.00
2022-10-18T08:11:20.707Z,18.10
2022-10-18T08:13:51.227Z,18.10
2022-10-18T08:16:21.525Z,18.10
2022-10-18T08:18:49.303Z,18.10
2022-10-18T08:21:18.605Z,18.10
2022-10-18T08:23:46.369Z,18.10
2022-10-18T08:26:16.163Z,18.10
2022-10-18T08:28:49.265Z,18.10
2022-10-18T08:31:25.905Z,18.10
2022-10-18T08:33:56.990Z,18.00
2022-10-18T08:36:24.719Z,18.10
2022-10-18T08:38:51.844Z,18.00
2022-10-18T08:41:43.949Z,17.90
2022-10-18T08:44:28.542Z,17.90
2022-10-18T08:47:10.713Z,17.90
2022-10-18T08:49:47.288Z,18.00
2022-10-18T08:52:24.895Z,18.10
2022-10-18T08:55:18.928Z,18.10
2022-10-18T08:57:47.859Z,18.10
2022-10-18T09:00:19.782Z,18.20
2022-10-18T09:02:49.515Z,18.20
2022-10-18T09:05:16.630Z,18.20
2022-10-18T09:08:09.825Z,18.30
2022-10-18T09:11:02.106Z,18.30
2022-10-18T09:14:03.583Z,18.40
2022-10-18T09:16:54.977Z,18.40
2022-10-18T09:19:38.720Z,18.40
2022-10-18T09:22:18.470Z,18.40
2022-10-18T09:25:19.564Z,18.40
2022-10-18T09:27:53.941Z,18.50
2022-10-18T09:30:41.487Z,18.40
2022-10-18T09:33:18.916Z,18.40
2022-10-18T09:36:02.478Z,18.40
2022-10-18T09:38:35.543Z,18.40
2022-10-18T09:41:10.749Z,18.40
2022-10-18T09:43:59.656Z,18.40
2022-10-18T09:46:32.260Z,18.40
2022-10-18T09:49:05.875Z,18.40
2022-10-18T09:51:39.079Z,18.30
2022-10-18T09:54:23.999Z,18.40
2022-10-18T09:59:37.127Z,18.40
2022-10-18T10:02:05.603Z,18.40
2022-10-18T10:04:36.685Z,18.40
2022-10-18T10:07:08.859Z,18.50
2022-10-18T10:09:47.440Z,18.50
2022-10-18T10:12:38.894Z,18.50
2022-10-18T10:15:23.846Z,18.50
2022-10-18T10:17:59.611Z,18.50
2022-10-18T10:20:47.312Z,18.50
2022-10-18T10:23:21.187Z,18.50
2022-10-18T10:26:08.320Z,18.50
2022-10-18T10:28:37.787Z,18.50
2022-10-18T10:31:23.624Z,18.50
2022-10-18T10:34:06.782Z,18.50
2022-10-18T10:36:35.766Z,18.60
2022-10-18T10:39:10.812Z,18.60
2022-10-18T10:41:40.934Z,18.60
2022-10-18T10:44:24.375Z,18.60
2022-10-18T10:46:55.528Z,18.70
2022-10-18T10:49:42.281Z,18.80
2022-10-18T10:52:28.406Z,18.90
2022-10-18T10:55:11.078Z,19.00
2022-10-18T10:57:47.594Z,19.20
2022-10-18T11:00:44.105Z,19.20
2022-10-18T11:03:27.797Z,19.30
2022-10-18T11:06:01.193Z,19.50
2022-10-18T11:08:38.234Z,19.30
2022-10-18T11:11:43.573Z,19.60
2022-10-18T11:14:36.529Z,19.60
2022-10-18T11:17:17.427Z,19.70
2022-10-18T11:20:01.876Z,19.80
2022-10-18T11:22:35.360Z,19.90
2022-10-18T11:25:07.439Z,20.00
2022-10-18T11:27:54.130Z,20.00
2022-10-18T11:30:53.447Z,20.00
2022-10-18T11:33:50.060Z,20.20
2022-10-18T11:36:31.215Z,20.20
2022-10-18T11:39:07.371Z,20.30
2022-10-18T11:41:55.478Z,20.40
2022-10-18T11:44:45.147Z,20.50
2022-10-18T11:47:40.836Z,20.70
2022-10-18T11:50:13.418Z,20.80
2022-10-18T11:52:48.946Z,20.90
2022-10-18T11:55:36.971Z,20.90
2022-10-18T11:58:23.295Z,21.00
2022-10-18T12:00:56.174Z,20.90
2022-10-18T12:03:44.714Z,20.80
2022-10-18T12:06:21.035Z,20.90
2022-10-18T12:08:54.267Z,20.80
2022-10-18T12:11:29.827Z,20.70
2022-10-18T12:14:01.748Z,20.60
2022-10-18T12:16:50.458Z,20.50
2022-10-18T12:19:26.217Z,20.40
2022-10-18T12:22:10.560Z,20.20
2022-10-18T12:24:37.876Z,20.20
2022-10-18T12:27:05.111Z,20.20
2022-10-18T12:29:45.399Z,20.30
2022-10-18T12:33:02.067Z,20.30
2022-10-18T12:35:45.566Z,20.20
2022-10-18T12:38:25.597Z,20.10
2022-10-18T12:40:54.977Z,20.20
2022-10-18T12:43:37.937Z,20.30
2022-10-18T12:46:13.081Z,20.30
2022-10-18T12:48:46.365Z,20.40
2022-10-18T12:51:15.376Z,20.50
2022-10-18T12:53:46.023Z,20.60
2022-10-18T12:56:42.307Z,20.70
2022-10-18T12:59:15.495Z,20.70
2022-10-18T13:01:51.372Z,20.70
2022-10-18T13:04:32.630Z,20.70
2022-10-18T13:07:05.544Z,20.80
2022-10-18T13:09:37.853Z,20.80
2022-10-18T13:12:10.661Z,20.90
2022-10-18T13:15:05.956Z,21.10
2022-10-18T13:17:55.052Z,21.20
2022-10-18T13:20:37.794Z,21.40
2022-10-18T13:23:38.069Z,21.30
2022-10-18T13:27:05.118Z,21.30
2022-10-18T13:30:14.758Z,21.20
2022-10-18T13:32:50.664Z,21.00
2022-10-18T13:35:45.120Z,20.90
2022-10-18T13:38:47.298Z,20.90
2022-10-18T13:41:18.967Z,20.90
2022-10-18T13:44:00.348Z,20.90
2022-10-18T13:46:33.111Z,20.90
2022-10-18T13:49:25.077Z,21.00
2022-10-18T13:52:48.379Z,21.10
2022-10-18T13:55:33.835Z,21.10
2022-10-18T13:58:19.673Z,21.10
2022-10-18T14:00:49.110Z,21.20
2022-10-18T14:03:56.242Z,21.30
2022-10-18T14:06:25.361Z,21.50
2022-10-18T14:09:14.182Z,21.60
2022-10-18T14:12:25.054Z,21.80
2022-10-18T14:15:05.335Z,21.90
2022-10-18T14:17:43.012Z,21.80
2022-10-18T14:20:49.023Z,21.90
2022-10-18T14:23:27.743Z,22.00
2022-10-18T14:26:09.245Z,22.10
2022-10-18T14:28:58.616Z,22.10
2022-10-18T14:31:24.946Z,22.10
2022-10-18T14:33:59.216Z,22.10
2022-10-18T14:36:29.945Z,22.10
2022-10-18T14:39:03.154Z,22.10
2022-10-18T14:41:33.011Z,22.10
2022-10-18T14:44:12.107Z,22.10
2022-10-18T14:47:04.254Z,22.20
2022-10-18T14:49:31.281Z,22.10
2022-10-18T14:52:00.316Z,22.20
2022-10-18T14:54:37.208Z,22.20
2022-10-18T14:57:07.885Z,22.10
2022-10-18T14:59:54.042Z,22.10
2022-10-18T15:02:26.776Z,22.10
2022-10-18T15:05:08.523Z,22.20
2022-10-18T15:07:36.533Z,22.30
2022-10-18T15:10:05.516Z,22.30
2022-10-18T15:12:40.992Z,22.30
2022-10-18T15:15:27.613Z,22.30
2022-10-18T15:18:05.263Z,22.30
2022-10-18T15:20:42.655Z,22.40
2022-10-18T15:23:25.588Z,22.40
2022-10-18T15:26:03.164Z,22.30
2022-10-18T15:28:33.448Z,22.40
2022-10-18T15:31:02.184Z,22.40
2022-10-18T15:33:34.914Z,22.40
2022-10-18T15:36:10.794Z,22.40
2022-10-18T15:38:38.906Z,22.40
2022-10-18T15:41:38.477Z,22.40
2022-10-18T15:44:36.764Z,22.40
2022-10-18T15:47:13.190Z,22.40
2022-10-18T15:49:46.214Z,22.40
2022-10-18T15:52:22.012Z,22.20
2022-10-18T15:54:51.567Z,22.40
2022-10-18T15:57:18.775Z,22.40
2022-10-18T15:59:54.369Z,22.40
2022-10-18T16:02:24.510Z,22.30
2022-10-18T16:04:54.572Z,22.10
2022-10-18T16:07:21.793Z,22.00
2022-10-18T16:09:49.006Z,21.80
2022-10-18T16:12:27.798Z,21.70
2022-10-18T16:14:56.951Z,21.60
2022-10-18T16:17:28.184Z,21.50
2022-10-18T16:19:59.803Z,21.40
2022-10-18T16:22:27.181Z,21.20
2022-10-18T16:24:54.937Z,21.10
2022-10-18T16:27:28.260Z,21.00
2022-10-18T16:30:00.195Z,20.90
2022-10-18T16:32:27.289Z,20.90
2022-10-18T16:34:54.927Z,20.80
2022-10-18T16:37:22.110Z,20.70
2022-10-18T16:39:49.028Z,20.60
2022-10-18T16:42:16.005Z,20.50
2022-10-18T16:44:42.890Z,20.40
2022-10-18T16:47:12.320Z,20.30
2022-10-18T16:49:45.470Z,20.20
2022-10-18T16:52:12.734Z,20.20
2022-10-18T16:54:39.912Z,20.10
2022-10-18T16:57:07.420Z,20.00
2022-10-18T16:59:37.396Z,20.00
2022-10-18T17:02:11.605Z,20.00
2022-10-18T17:04:38.775Z,19.90
2022-10-18T17:07:08.969Z,19.80
2022-10-18T17:09:37.080Z,19.80
2022-10-18T17:12:06.389Z,19.70
2022-10-18T17:14:39.809Z,19.70
2022-10-18T17:17:12.847Z,19.60
2022-10-18T17:19:40.172Z,19.50
2022-10-18T17:22:10.022Z,19.40
2022-10-18T17:24:42.421Z,19.40
2022-10-18T17:27:11.332Z,19.30
2022-10-18T17:29:40.933Z,19.30
2022-10-18T17:32:08.642Z,19.30
2022-10-18T17:34:38.013Z,19.10
2022-10-18T17:37:06.156Z,19.10
2022-10-18T17:39:36.688Z,19.00
2022-10-18T17:42:06.307Z,19.00
2022-10-18T17:44:33.882Z,19.00
2022-10-18T17:47:01.012Z,18.90
2022-10-18T17:49:28.361Z,18.90
2022-10-18T17:51:55.807Z,18.90
2022-10-18T17:54:22.867Z,18.80
2022-10-18T17:56:52.341Z,18.70
2022-10-18T17:59:22.497Z,18.70
2022-10-18T18:01:49.681Z,18.70
2022-10-18T18:04:25.822Z,18.70
2022-10-18T18:06:57.422Z,18.60
2022-10-18T18:09:25.061Z,18.60
2022-10-18T18:11:52.292Z,18.60
2022-10-18T18:14:19.759Z,18.60
2022-10-18T18:16:47.498Z,18.50
2022-10-18T18:19:15.651Z,18.50
2022-10-18T18:21:43.487Z,18.40
2022-10-18T18:24:10.889Z,18.40
2022-10-18T18:26:41.487Z,18.30
2022-10-18T18:29:08.656Z,18.20
2022-10-18T18:31:41.307Z,18.20
2022-10-18T18:34:11.297Z,18.20
2022-10-18T18:36:40.565Z,18.20
2022-10-18T18:39:09.098Z,18.10
2022-10-18T18:41:37.911Z,18.20
2022-10-18T18:44:06.315Z,18.10
2022-10-18T18:46:38.394Z,18.10
2022-10-18T18:49:08.062Z,18.00
2022-10-18T18:51:38.139Z,18.00
2022-10-18T18:54:05.671Z,17.90
2022-10-18T18:56:33.428Z,17.90
2022-10-18T18:59:00.967Z,17.80
2022-10-18T19:01:30.917Z,17.80
2022-10-18T19:03:58.985Z,17.80
2022-10-18T19:06:29.299Z,17.70
2022-10-18T19:09:01.540Z,17.60
2022-10-18T19:11:35.213Z,17.60
2022-10-18T19:14:03.802Z,17.60
2022-10-18T19:16:35.884Z,17.50
2022-10-18T19:19:06.187Z,17.60
2022-10-18T19:21:37.299Z,17.50
2022-10-18T19:24:46.198Z,17.50
2022-10-18T19:27:15.359Z,17.50
2022-10-18T19:29:43.144Z,17.50
2022-10-18T19:32:12.588Z,17.30
2022-10-18T19:34:46.123Z,17.30
2022-10-18T19:37:15.244Z,17.20
2022-10-18T19:39:42.578Z,17.10
2022-10-18T19:42:18.620Z,17.20
2022-10-18T19:44:49.702Z,17.20
2022-10-18T19:47:16.838Z,17.20
2022-10-18T19:49:44.215Z,17.10
2022-10-18T19:52:12.512Z,17.20
2022-10-18T19:54:40.059Z,17.10
2022-10-18T19:57:07.319Z,17.10
2022-10-18T19:59:36.209Z,17.00
2022-10-18T20:02:06.709Z,16.90
2022-10-18T20:04:35.164Z,16.90
2022-10-18T20:07:02.849Z,16.80
2022-10-18T20:09:30.097Z,16.90
2022-10-18T20:11:57.357Z,16.90
2022-10-18T20:14:24.490Z,16.90
2022-10-18T20:16:51.762Z,16.80
2022-10-18T20:19:18.889Z,16.90
2022-10-18T20:21:46.104Z,16.80
2022-10-18T20:24:13.189Z,16.80
2022-10-18T20:26:40.318Z,16.80
2022-10-18T20:29:10.725Z,16.70
2022-10-18T20:31:39.152Z,16.70
2022-10-18T20:34:12.061Z,16.70
2022-10-18T20:36:43.330Z,16.70
2022-10-18T20:39:13.365Z,16.60
2022-10-18T20:41:41.379Z,16.60
2022-10-18T20:44:13.727Z,16.50
2022-10-18T20:46:41.032Z,16.50
2022-10-18T20:49:10.467Z,16.50
2022-10-18T20:51:37.427Z,16.40
2022-10-18T20:54:06.857Z,16.40
2022-10-18T20:56:36.949Z,16.40
2022-10-18T20:59:11.717Z,16.40
2022-10-18T21:01:40.427Z,16.40
2022-10-18T21:04:09.552Z,16.40
2022-10-18T21:06:42.217Z,16.40
2022-10-18T21:09:15.647Z,16.40
2022-10-18T21:11:44.993Z,16.30
2022-10-18T21:14:14.902Z,16.30
2022-10-18T21:16:43.322Z,16.30
2022-10-18T21:19:17.684Z,16.20
2022-10-18T21:21:47.186Z,16.20
2022-10-18T21:24:18.107Z,16.30
2022-10-18T21:26:45.875Z,16.10
2022-10-18T21:29:21.867Z,16.10
2022-10-18T21:31:49.760Z,16.00
2022-10-18T21:34:17.764Z,16.00
2022-10-18T21:36:50.092Z,15.90
2022-10-18T21:39:20.445Z,15.90
2022-10-18T21:41:47.946Z,15.90
2022-10-18T21:44:15.663Z,15.80
2022-10-18T21:46:43.565Z,15.80
2022-10-18T21:49:11.433Z,15.80
2022-10-18T21:51:39.533Z,15.70
2022-10-18T21:54:10.481Z,15.70
2022-10-18T21:56:37.893Z,15.70
2022-10-18T21:59:05.513Z,15.70
2022-10-18T22:01:35.158Z,15.60
2022-10-18T22:04:05.703Z,15.60
2022-10-18T22:09:14.731Z,15.50
2022-10-18T22:11:47.427Z,15.50
2022-10-18T22:14:14.462Z,15.50
2022-10-18T22:16:41.483Z,15.40
2022-10-18T22:19:09.557Z,15.40
2022-10-18T22:21:36.498Z,15.30
2022-10-18T22:24:10.787Z,15.40
2022-10-18T22:26:40.700Z,15.40
2022-10-18T22:29:15.092Z,15.40
2022-10-18T22:31:45.114Z,15.30
2022-10-18T22:34:15.457Z,15.30
2022-10-18T22:36:45.919Z,15.30
2022-10-18T22:39:16.965Z,15.30
2022-10-18T22:41:44.379Z,15.20
2022-10-18T22:44:15.182Z,15.10
2022-10-18T22:46:43.042Z,15.10
2022-10-18T22:49:11.444Z,15.10
2022-10-18T22:51:38.696Z,15.00
2022-10-18T22:54:10.267Z,15.00
2022-10-18T22:56:41.458Z,15.00
2022-10-18T22:59:08.600Z,15.00
2022-10-18T23:01:39.003Z,15.00
2022-10-18T23:04:06.251Z,14.90
2022-10-18T23:06:36.045Z,14.90
2022-10-18T23:09:10.436Z,14.90
2022-10-18T23:11:37.664Z,14.90
2022-10-18T23:14:08.584Z,14.90
2022-10-18T23:16:35.922Z,14.90
2022-10-18T23:19:03.228Z,14.90
2022-10-18T23:21:30.692Z,14.80
2022-10-18T23:23:58.073Z,14.90
2022-10-18T23:26:27.504Z,14.90
2022-10-18T23:28:55.310Z,14.80
2022-10-18T23:31:31.316Z,14.80
2022-10-18T23:34:03.886Z,14.80
2022-10-18T23:36:32.626Z,14.80
2022-10-18T23:39:02.556Z,14.60
2022-10-18T23:41:29.656Z,14.70
2022-10-18T23:43:56.834Z,14.70
2022-10-18T23:46:24.679Z,14.60
2022-10-18T23:48:54.516Z,14.60
2022-10-18T23:51:21.552Z,14.60
2022-10-18T23:53:48.609Z,14.60
2022-10-18T23:56:16.668Z,14.60
2022-10-18T23:58:44.831Z,14.50
